PWSweather.com
Personal Weather Stations
Station Observations
URBANDALE
Westwind Acres And Meredith Hills, Urbandale, IA 50322

Westwind Acres And Meredith HillsUrbandale, IA 50322

Lat: 41.643, Lon: -93.709

Elevation: 928

Station Type:

http://urbandaleweather.com

High Low Average
Temperature 27.6°F-2.4°C -0.9°F-18.3°C 13.5°F-10.3°C
Dew Point 24.0°F-4.4°C -4.3°F-20.2°C 7.8°F-13.4°C
Winds 4.0 mph 6.4 kmh Calm Calm 1.0 mph SE1.6 kmh SE
Wind Gusts 9.0 mph14.5 kmh -- 4.0 mph6.4 kmh
Humidity 87% 66% 78%
Pressure 30.22 in1023.4 mb 30.08 in1018.6 mb -
Precipitation 0.00 in0.0 mm - -
Hour Temp Dew Point Humidity Winds Wind Gusts Pressure Precip Precip Rate Daily Precip Total
12:00 AM 0.5°F-17.5°C -3.4°F-19.7°C 83% Calm Calm -- 30.15 in1021.0 mb 0.00 in0.0 mm 0.00 in0.0 mm 0.00 in0.0 mm
12:05 AM 0.5°F-17.5°C -3.4°F-19.7°C 83% Calm Calm 1.0 mph1.6 kmh 30.15 in1021.0 mb 0.00 in0.0 mm 0.00 in0.0 mm 0.00 in0.0 mm
12:10 AM 0.5°F-17.5°C -3.4°F-19.7°C 83% Calm Calm 1.0 mph1.6 kmh 30.15 in1021.0 mb 0.00 in0.0 mm 0.00 in0.0 mm 0.00 in0.0 mm
12:15 AM 0.4°F-17.6°C -3.5°F-19.7°C 83% Calm Calm 1.0 mph1.6 kmh 30.15 in1021.0 mb 0.00 in0.0 mm 0.00 in0.0 mm 0.00 in0.0 mm
12:20 AM 0.4°F-17.6°C -3.5°F-19.7°C 83% Calm Calm 2.0 mph3.2 kmh 30.15 in1021.0 mb 0.00 in0.0 mm 0.00 in0.0 mm 0.00 in0.0 mm
12:25 AM 0.4°F-17.6°C -3.5°F-19.7°C 83% Calm Calm 2.0 mph3.2 kmh 30.15 in1021.0 mb 0.00 in0.0 mm 0.00 in0.0 mm 0.00 in0.0 mm
12:30 AM 0.4°F-17.6°C -3.5°F-19.7°C 83% Calm Calm 2.0 mph3.2 kmh 30.16 in1021.3 mb 0.00 in0.0 mm 0.00 in0.0 mm 0.00 in0.0 mm
12:35 AM 0.3°F-17.6°C -3.6°F-19.8°C 83% Calm Calm 1.0 mph1.6 kmh 30.15 in1021.0 mb 0.00 in0.0 mm 0.00 in0.0 mm 0.00 in0.0 mm
12:40 AM 0.3°F-17.6°C -3.6°F-19.8°C 83% Calm Calm 1.0 mph1.6 kmh 30.16 in1021.3 mb 0.00 in0.0 mm 0.00 in0.0 mm 0.00 in0.0 mm
12:45 AM 0.2°F-17.7°C -3.7°F-19.8°C 83% Calm Calm 1.0 mph1.6 kmh 30.16 in1021.3 mb 0.00 in0.0 mm 0.00 in0.0 mm 0.00 in0.0 mm
12:50 AM 0.2°F-17.7°C -3.7°F-19.8°C 83% Calm Calm 1.0 mph1.6 kmh 30.16 in1021.3 mb 0.00 in0.0 mm 0.00 in0.0 mm 0.00 in0.0 mm
12:55 AM 0.2°F-17.7°C -3.7°F-19.8°C 83% Calm Calm 1.0 mph1.6 kmh 30.16 in1021.3 mb 0.00 in0.0 mm 0.00 in0.0 mm 0.00 in0.0 mm
01:00 AM 0.2°F-17.7°C -3.7°F-19.8°C 83% Calm Calm 1.0 mph1.6 kmh 30.16 in1021.3 mb 0.00 in0.0 mm 0.00 in0.0 mm 0.00 in0.0 mm
01:05 AM 0.1°F-17.7°C -3.8°F-19.9°C 83% Calm Calm 1.0 mph1.6 kmh 30.16 in1021.3 mb 0.00 in0.0 mm 0.00 in0.0 mm 0.00 in0.0 mm
01:10 AM 0.1°F-17.7°C -3.8°F-19.9°C 83% Calm Calm -- 30.16 in1021.3 mb 0.00 in0.0 mm 0.00 in0.0 mm 0.00 in0.0 mm
01:15 AM 0.0°F-17.8°C -3.9°F-19.9°C 83% Calm Calm 1.0 mph1.6 kmh 30.15 in1021.0 mb 0.00 in0.0 mm 0.00 in0.0 mm 0.00 in0.0 mm
01:20 AM 0.0°F-17.8°C -3.9°F-19.9°C 83% Calm Calm 2.0 mph3.2 kmh 30.15 in1021.0 mb 0.00 in0.0 mm 0.00 in0.0 mm 0.00 in0.0 mm
01:25 AM 0.0°F-17.8°C -3.9°F-19.9°C 83% Calm Calm 2.0 mph3.2 kmh 30.15 in1021.0 mb 0.00 in0.0 mm 0.00 in0.0 mm 0.00 in0.0 mm
01:30 AM 0.0°F-17.8°C -3.7°F-19.8°C 84% Calm Calm 1.0 mph1.6 kmh 30.14 in1020.7 mb 0.00 in0.0 mm 0.00 in0.0 mm 0.00 in0.0 mm
01:35 AM 0.0°F-17.8°C -3.7°F-19.8°C 84% Calm Calm 1.0 mph1.6 kmh 30.15 in1021.0 mb 0.00 in0.0 mm 0.00 in0.0 mm 0.00 in0.0 mm
01:40 AM 0.0°F-17.8°C -3.7°F-19.8°C 84% Calm Calm 1.0 mph1.6 kmh 30.14 in1020.7 mb 0.00 in0.0 mm 0.00 in0.0 mm 0.00 in0.0 mm
01:45 AM 0.1°F-17.7°C -3.6°F-19.8°C 84% Calm Calm 1.0 mph1.6 kmh 30.15 in1021.0 mb 0.00 in0.0 mm 0.00 in0.0 mm 0.00 in0.0 mm
01:50 AM 0.0°F-17.8°C -3.7°F-19.8°C 84% Calm Calm 1.0 mph1.6 kmh 30.15 in1021.0 mb 0.00 in0.0 mm 0.00 in0.0 mm 0.00 in0.0 mm
01:55 AM 0.1°F-17.7°C -3.6°F-19.8°C 84% Calm Calm 1.0 mph1.6 kmh 30.15 in1021.0 mb 0.00 in0.0 mm 0.00 in0.0 mm 0.00 in0.0 mm
02:00 AM 0.1°F-17.7°C -3.6°F-19.8°C 84% Calm Calm 1.0 mph1.6 kmh 30.15 in1021.0 mb 0.00 in0.0 mm 0.00 in0.0 mm 0.00 in0.0 mm
02:05 AM 0.0°F-17.8°C -3.7°F-19.8°C 84% Calm Calm -- 30.16 in1021.3 mb 0.00 in0.0 mm 0.00 in0.0 mm 0.00 in0.0 mm
02:10 AM 0.0°F-17.8°C -3.7°F-19.8°C 84% Calm Calm -- 30.16 in1021.3 mb 0.00 in0.0 mm 0.00 in0.0 mm 0.00 in0.0 mm
02:15 AM 0.0°F-17.8°C -3.7°F-19.8°C 84% Calm Calm 1.0 mph1.6 kmh 30.16 in1021.3 mb 0.00 in0.0 mm 0.00 in0.0 mm 0.00 in0.0 mm
02:20 AM 0.0°F-17.8°C -3.7°F-19.8°C 84% Calm Calm 1.0 mph1.6 kmh 30.16 in1021.3 mb 0.00 in0.0 mm 0.00 in0.0 mm 0.00 in0.0 mm
02:25 AM 0.0°F-17.8°C -3.7°F-19.8°C 84% Calm Calm -- 30.16 in1021.3 mb 0.00 in0.0 mm 0.00 in0.0 mm 0.00 in0.0 mm
02:30 AM 0.0°F-17.8°C -3.7°F-19.8°C 84% Calm Calm -- 30.17 in1021.7 mb 0.00 in0.0 mm 0.00 in0.0 mm 0.00 in0.0 mm
02:35 AM -0.1°F-17.8°C -3.8°F-19.9°C 84% Calm Calm -- 30.16 in1021.3 mb 0.00 in0.0 mm 0.00 in0.0 mm 0.00 in0.0 mm
02:40 AM -0.1°F-17.8°C -3.8°F-19.9°C 84% Calm Calm -- 30.17 in1021.7 mb 0.00 in0.0 mm 0.00 in0.0 mm 0.00 in0.0 mm
02:45 AM -0.1°F-17.8°C -3.8°F-19.9°C 84% Calm Calm -- 30.16 in1021.3 mb 0.00 in0.0 mm 0.00 in0.0 mm 0.00 in0.0 mm
02:50 AM -0.1°F-17.8°C -3.8°F-19.9°C 84% Calm Calm -- 30.17 in1021.7 mb 0.00 in0.0 mm 0.00 in0.0 mm 0.00 in0.0 mm
02:55 AM -0.2°F-17.9°C -3.9°F-19.9°C 84% Calm Calm -- 30.16 in1021.3 mb 0.00 in0.0 mm 0.00 in0.0 mm 0.00 in0.0 mm
03:00 AM -0.2°F-17.9°C -3.9°F-19.9°C 84% Calm Calm -- 30.16 in1021.3 mb 0.00 in0.0 mm 0.00 in0.0 mm 0.00 in0.0 mm
03:05 AM -0.3°F-17.9°C -4.0°F-20.0°C 84% Calm Calm -- 30.16 in1021.3 mb 0.00 in0.0 mm 0.00 in0.0 mm 0.00 in0.0 mm
03:10 AM -0.4°F-18.0°C -4.1°F-20.1°C 84% Calm Calm -- 30.16 in1021.3 mb 0.00 in0.0 mm 0.00 in0.0 mm 0.00 in0.0 mm
03:15 AM -0.5°F-18.1°C -3.9°F-19.9°C 85% Calm Calm -- 30.17 in1021.7 mb 0.00 in0.0 mm 0.00 in0.0 mm 0.00 in0.0 mm
03:20 AM -0.5°F-18.1°C -3.9°F-19.9°C 85% Calm Calm -- 30.17 in1021.7 mb 0.00 in0.0 mm 0.00 in0.0 mm 0.00 in0.0 mm
03:25 AM -0.6°F-18.1°C -4.0°F-20.0°C 85% Calm Calm -- 30.16 in1021.3 mb 0.00 in0.0 mm 0.00 in0.0 mm 0.00 in0.0 mm
03:30 AM -0.6°F-18.1°C -4.0°F-20.0°C 85% Calm Calm -- 30.16 in1021.3 mb 0.00 in0.0 mm 0.00 in0.0 mm 0.00 in0.0 mm
03:35 AM -0.6°F-18.1°C -4.0°F-20.0°C 85% Calm Calm -- 30.16 in1021.3 mb 0.00 in0.0 mm 0.00 in0.0 mm 0.00 in0.0 mm
03:40 AM -0.7°F-18.2°C -4.1°F-20.1°C 85% Calm Calm -- 30.16 in1021.3 mb 0.00 in0.0 mm 0.00 in0.0 mm 0.00 in0.0 mm
03:45 AM -0.8°F-18.2°C -4.2°F-20.1°C 85% Calm Calm -- 30.16 in1021.3 mb 0.00 in0.0 mm 0.00 in0.0 mm 0.00 in0.0 mm
03:50 AM -0.8°F-18.2°C -4.2°F-20.1°C 85% Calm Calm -- 30.16 in1021.3 mb 0.00 in0.0 mm 0.00 in0.0 mm 0.00 in0.0 mm
03:55 AM -0.9°F-18.3°C -4.3°F-20.2°C 85% Calm Calm -- 30.16 in1021.3 mb 0.00 in0.0 mm 0.00 in0.0 mm 0.00 in0.0 mm
04:00 AM -0.9°F-18.3°C -4.3°F-20.2°C 85% Calm Calm -- 30.16 in1021.3 mb 0.00 in0.0 mm 0.00 in0.0 mm 0.00 in0.0 mm
04:05 AM -0.9°F-18.3°C -4.3°F-20.2°C 85% Calm Calm -- 30.16 in1021.3 mb 0.00 in0.0 mm 0.00 in0.0 mm 0.00 in0.0 mm
04:10 AM -0.9°F-18.3°C -4.3°F-20.2°C 85% Calm Calm -- 30.16 in1021.3 mb 0.00 in0.0 mm 0.00 in0.0 mm 0.00 in0.0 mm
04:15 AM -0.8°F-18.2°C -4.0°F-20.0°C 86% Calm Calm -- 30.16 in1021.3 mb 0.00 in0.0 mm 0.00 in0.0 mm 0.00 in0.0 mm
04:20 AM -0.8°F-18.2°C -4.0°F-20.0°C 86% Calm Calm -- 30.16 in1021.3 mb 0.00 in0.0 mm 0.00 in0.0 mm 0.00 in0.0 mm
04:25 AM -0.8°F-18.2°C -4.0°F-20.0°C 86% Calm Calm 1.0 mph1.6 kmh 30.16 in1021.3 mb 0.00 in0.0 mm 0.00 in0.0 mm 0.00 in0.0 mm
04:30 AM -0.7°F-18.2°C -3.9°F-19.9°C 86% Calm Calm 1.0 mph1.6 kmh 30.16 in1021.3 mb 0.00 in0.0 mm 0.00 in0.0 mm 0.00 in0.0 mm
04:35 AM -0.8°F-18.2°C -4.0°F-20.0°C 86% Calm Calm 1.0 mph1.6 kmh 30.16 in1021.3 mb 0.00 in0.0 mm 0.00 in0.0 mm 0.00 in0.0 mm
04:40 AM -0.7°F-18.2°C -3.9°F-19.9°C 86% Calm Calm 1.0 mph1.6 kmh 30.16 in1021.3 mb 0.00 in0.0 mm 0.00 in0.0 mm 0.00 in0.0 mm
04:45 AM -0.7°F-18.2°C -3.9°F-19.9°C 86% Calm Calm 1.0 mph1.6 kmh 30.16 in1021.3 mb 0.00 in0.0 mm 0.00 in0.0 mm 0.00 in0.0 mm
04:50 AM -0.7°F-18.2°C -3.9°F-19.9°C 86% Calm Calm 1.0 mph1.6 kmh 30.16 in1021.3 mb 0.00 in0.0 mm 0.00 in0.0 mm 0.00 in0.0 mm
04:55 AM -0.7°F-18.2°C -3.9°F-19.9°C 86% Calm Calm 1.0 mph1.6 kmh 30.16 in1021.3 mb 0.00 in0.0 mm 0.00 in0.0 mm 0.00 in0.0 mm
05:00 AM -0.7°F-18.2°C -3.9°F-19.9°C 86% Calm Calm 1.0 mph1.6 kmh 30.17 in1021.7 mb 0.00 in0.0 mm 0.00 in0.0 mm 0.00 in0.0 mm
05:05 AM -0.7°F-18.2°C -3.9°F-19.9°C 86% Calm Calm 1.0 mph1.6 kmh 30.17 in1021.7 mb 0.00 in0.0 mm 0.00 in0.0 mm 0.00 in0.0 mm
05:10 AM -0.6°F-18.1°C -3.8°F-19.9°C 86% Calm Calm 1.0 mph1.6 kmh 30.17 in1021.7 mb 0.00 in0.0 mm 0.00 in0.0 mm 0.00 in0.0 mm
05:15 AM -0.6°F-18.1°C -3.8°F-19.9°C 86% Calm Calm 1.0 mph1.6 kmh 30.17 in1021.7 mb 0.00 in0.0 mm 0.00 in0.0 mm 0.00 in0.0 mm
05:20 AM -0.6°F-18.1°C -3.8°F-19.9°C 86% Calm Calm 1.0 mph1.6 kmh 30.17 in1021.7 mb 0.00 in0.0 mm 0.00 in0.0 mm 0.00 in0.0 mm
05:25 AM -0.6°F-18.1°C -3.8°F-19.9°C 86% Calm Calm 1.0 mph1.6 kmh 30.17 in1021.7 mb 0.00 in0.0 mm 0.00 in0.0 mm 0.00 in0.0 mm
05:30 AM -0.6°F-18.1°C -3.8°F-19.9°C 86% Calm Calm 1.0 mph1.6 kmh 30.17 in1021.7 mb 0.00 in0.0 mm 0.00 in0.0 mm 0.00 in0.0 mm
05:35 AM -0.5°F-18.1°C -3.7°F-19.8°C 86% Calm Calm 1.0 mph1.6 kmh 30.17 in1021.7 mb 0.00 in0.0 mm 0.00 in0.0 mm 0.00 in0.0 mm
05:40 AM -0.5°F-18.1°C -3.4°F-19.7°C 87% Calm Calm 1.0 mph1.6 kmh 30.17 in1021.7 mb 0.00 in0.0 mm 0.00 in0.0 mm 0.00 in0.0 mm
05:45 AM -0.5°F-18.1°C -3.4°F-19.7°C 87% Calm Calm -- 30.18 in1022.0 mb 0.00 in0.0 mm 0.00 in0.0 mm 0.00 in0.0 mm
05:55 AM -0.3°F-17.9°C -3.2°F-19.6°C 87% Calm Calm -- 30.17 in1021.7 mb 0.00 in0.0 mm 0.00 in0.0 mm 0.00 in0.0 mm
06:00 AM -0.1°F-17.8°C -3.0°F-19.4°C 87% Calm Calm -- 30.17 in1021.7 mb 0.00 in0.0 mm 0.00 in0.0 mm 0.00 in0.0 mm
06:05 AM -0.1°F-17.8°C -3.0°F-19.4°C 87% Calm Calm -- 30.17 in1021.7 mb 0.00 in0.0 mm 0.00 in0.0 mm 0.00 in0.0 mm
06:10 AM 0.0°F-17.8°C -2.9°F-19.4°C 87% Calm Calm -- 30.18 in1022.0 mb 0.00 in0.0 mm 0.00 in0.0 mm 0.00 in0.0 mm
06:15 AM 0.1°F-17.7°C -2.9°F-19.4°C 87% Calm Calm -- 30.18 in1022.0 mb 0.00 in0.0 mm 0.00 in0.0 mm 0.00 in0.0 mm
06:20 AM 0.1°F-17.7°C -2.9°F-19.4°C 87% Calm Calm -- 30.18 in1022.0 mb 0.00 in0.0 mm 0.00 in0.0 mm 0.00 in0.0 mm
06:25 AM 0.2°F-17.7°C -2.8°F-19.3°C 87% Calm Calm -- 30.18 in1022.0 mb 0.00 in0.0 mm 0.00 in0.0 mm 0.00 in0.0 mm
06:30 AM 0.2°F-17.7°C -2.8°F-19.3°C 87% Calm Calm -- 30.18 in1022.0 mb 0.00 in0.0 mm 0.00 in0.0 mm 0.00 in0.0 mm
06:35 AM 0.2°F-17.7°C -2.8°F-19.3°C 87% Calm Calm -- 30.18 in1022.0 mb 0.00 in0.0 mm 0.00 in0.0 mm 0.00 in0.0 mm
06:40 AM 0.2°F-17.7°C -2.8°F-19.3°C 87% Calm Calm -- 30.18 in1022.0 mb 0.00 in0.0 mm 0.00 in0.0 mm 0.00 in0.0 mm
06:45 AM 0.3°F-17.6°C -2.7°F-19.3°C 87% Calm Calm -- 30.19 in1022.4 mb 0.00 in0.0 mm 0.00 in0.0 mm 0.00 in0.0 mm
06:50 AM 0.4°F-17.6°C -2.6°F-19.2°C 87% Calm Calm -- 30.19 in1022.4 mb 0.00 in0.0 mm 0.00 in0.0 mm 0.00 in0.0 mm
06:55 AM 0.4°F-17.6°C -2.6°F-19.2°C 87% Calm Calm 1.0 mph1.6 kmh 30.19 in1022.4 mb 0.00 in0.0 mm 0.00 in0.0 mm 0.00 in0.0 mm
07:00 AM 0.5°F-17.5°C -2.5°F-19.2°C 87% Calm Calm 1.0 mph1.6 kmh 30.19 in1022.4 mb 0.00 in0.0 mm 0.00 in0.0 mm 0.00 in0.0 mm
07:05 AM 0.5°F-17.5°C -2.7°F-19.3°C 86% Calm Calm 1.0 mph1.6 kmh 30.19 in1022.4 mb 0.00 in0.0 mm 0.00 in0.0 mm 0.00 in0.0 mm
07:10 AM 0.6°F-17.4°C -2.6°F-19.2°C 86% Calm Calm 1.0 mph1.6 kmh 30.20 in1022.7 mb 0.00 in0.0 mm 0.00 in0.0 mm 0.00 in0.0 mm
07:15 AM 0.5°F-17.5°C -2.7°F-19.3°C 86% Calm Calm 2.0 mph3.2 kmh 30.19 in1022.4 mb 0.00 in0.0 mm 0.00 in0.0 mm 0.00 in0.0 mm
07:20 AM 0.6°F-17.4°C -2.6°F-19.2°C 86% Calm Calm 2.0 mph3.2 kmh 30.20 in1022.7 mb 0.00 in0.0 mm 0.00 in0.0 mm 0.00 in0.0 mm
07:25 AM 0.6°F-17.4°C -2.4°F-19.1°C 87% Calm Calm 2.0 mph3.2 kmh 30.20 in1022.7 mb 0.00 in0.0 mm 0.00 in0.0 mm 0.00 in0.0 mm
07:30 AM 0.6°F-17.4°C -2.4°F-19.1°C 87% Calm Calm 2.0 mph3.2 kmh 30.20 in1022.7 mb 0.00 in0.0 mm 0.00 in0.0 mm 0.00 in0.0 mm
07:35 AM 0.7°F-17.4°C -2.3°F-19.1°C 87% Calm Calm 2.0 mph3.2 kmh 30.20 in1022.7 mb 0.00 in0.0 mm 0.00 in0.0 mm 0.00 in0.0 mm
07:40 AM 0.7°F-17.4°C -2.3°F-19.1°C 87% Calm Calm 3.0 mph4.8 kmh 30.20 in1022.7 mb 0.00 in0.0 mm 0.00 in0.0 mm 0.00 in0.0 mm
07:45 AM 0.7°F-17.4°C -2.5°F-19.2°C 86% 1.0 mph SE1.6 kmh SE 5.0 mph8.0 kmh 30.20 in1022.7 mb 0.00 in0.0 mm 0.00 in0.0 mm 0.00 in0.0 mm
07:50 AM 0.8°F-17.3°C -2.2°F-19.0°C 87% Calm Calm 5.0 mph8.0 kmh 30.20 in1022.7 mb 0.00 in0.0 mm 0.00 in0.0 mm 0.00 in0.0 mm
07:55 AM 0.8°F-17.3°C -2.4°F-19.1°C 86% Calm Calm 2.0 mph3.2 kmh 30.21 in1023.0 mb 0.00 in0.0 mm 0.00 in0.0 mm 0.00 in0.0 mm
08:00 AM 0.9°F-17.3°C -2.3°F-19.1°C 86% Calm Calm 2.0 mph3.2 kmh 30.21 in1023.0 mb 0.00 in0.0 mm 0.00 in0.0 mm 0.00 in0.0 mm
08:05 AM 0.9°F-17.3°C -2.1°F-18.9°C 87% Calm Calm 2.0 mph3.2 kmh 30.21 in1023.0 mb 0.00 in0.0 mm 0.00 in0.0 mm 0.00 in0.0 mm
08:10 AM 1.1°F-17.2°C -1.9°F-18.8°C 87% 1.0 mph SE1.6 kmh SE 3.0 mph4.8 kmh 30.20 in1022.7 mb 0.00 in0.0 mm 0.00 in0.0 mm 0.00 in0.0 mm
08:15 AM 1.3°F-17.1°C -1.7°F-18.7°C 87% 1.0 mph SE1.6 kmh SE 4.0 mph6.4 kmh 30.20 in1022.7 mb 0.00 in0.0 mm 0.00 in0.0 mm 0.00 in0.0 mm
08:20 AM 1.4°F-17.0°C -1.8°F-18.8°C 86% 2.0 mph SE3.2 kmh SE 4.0 mph6.4 kmh 30.20 in1022.7 mb 0.00 in0.0 mm 0.00 in0.0 mm 0.00 in0.0 mm
08:25 AM 1.5°F-16.9°C -1.7°F-18.7°C 86% 1.0 mph ESE1.6 kmh ESE 4.0 mph6.4 kmh 30.20 in1022.7 mb 0.00 in0.0 mm 0.00 in0.0 mm 0.00 in0.0 mm
08:30 AM 1.8°F-16.8°C -1.4°F-18.6°C 86% 1.0 mph ESE1.6 kmh ESE 4.0 mph6.4 kmh 30.21 in1023.0 mb 0.00 in0.0 mm 0.00 in0.0 mm 0.00 in0.0 mm
08:35 AM 2.2°F-16.6°C -1.0°F-18.3°C 86% Calm Calm 3.0 mph4.8 kmh 30.21 in1023.0 mb 0.00 in0.0 mm 0.00 in0.0 mm 0.00 in0.0 mm
08:40 AM 2.5°F-16.4°C -1.0°F-18.3°C 85% 1.0 mph SE1.6 kmh SE 5.0 mph8.0 kmh 30.21 in1023.0 mb 0.00 in0.0 mm 0.00 in0.0 mm 0.00 in0.0 mm
08:45 AM 2.8°F-16.2°C -0.7°F-18.2°C 85% 2.0 mph SE3.2 kmh SE 6.0 mph9.7 kmh 30.21 in1023.0 mb 0.00 in0.0 mm 0.00 in0.0 mm 0.00 in0.0 mm
08:50 AM 3.0°F-16.1°C -0.7°F-18.2°C 84% 1.0 mph SE1.6 kmh SE 6.0 mph9.7 kmh 30.22 in1023.4 mb 0.00 in0.0 mm 0.00 in0.0 mm 0.00 in0.0 mm
08:55 AM 3.3°F-15.9°C -0.4°F-18.0°C 84% 2.0 mph ESE3.2 kmh ESE 5.0 mph8.0 kmh 30.22 in1023.4 mb 0.00 in0.0 mm 0.00 in0.0 mm 0.00 in0.0 mm
09:00 AM 3.8°F-15.7°C 0.0°F-17.8°C 84% 1.0 mph ESE1.6 kmh ESE 5.0 mph8.0 kmh 30.22 in1023.4 mb 0.00 in0.0 mm 0.00 in0.0 mm 0.00 in0.0 mm
09:05 AM 4.5°F-15.3°C 0.5°F-17.5°C 83% 1.0 mph ESE1.6 kmh ESE 5.0 mph8.0 kmh 30.22 in1023.4 mb 0.00 in0.0 mm 0.00 in0.0 mm 0.00 in0.0 mm
09:10 AM 4.8°F-15.1°C 0.8°F-17.3°C 83% 1.0 mph SE1.6 kmh SE 4.0 mph6.4 kmh 30.22 in1023.4 mb 0.00 in0.0 mm 0.00 in0.0 mm 0.00 in0.0 mm
09:15 AM 5.2°F-14.9°C 0.9°F-17.3°C 82% 1.0 mph SSE1.6 kmh SSE 4.0 mph6.4 kmh 30.22 in1023.4 mb 0.00 in0.0 mm 0.00 in0.0 mm 0.00 in0.0 mm
09:20 AM 5.6°F-14.7°C 1.0°F-17.2°C 81% 1.0 mph SE1.6 kmh SE 4.0 mph6.4 kmh 30.22 in1023.4 mb 0.00 in0.0 mm 0.00 in0.0 mm 0.00 in0.0 mm
09:25 AM 6.2°F-14.3°C 1.4°F-17.0°C 80% 1.0 mph SE1.6 kmh SE 3.0 mph4.8 kmh 30.22 in1023.4 mb 0.00 in0.0 mm 0.00 in0.0 mm 0.00 in0.0 mm
09:30 AM 6.9°F-13.9°C 1.8°F-16.8°C 79% 1.0 mph S1.6 kmh S 3.0 mph4.8 kmh 30.22 in1023.4 mb 0.00 in0.0 mm 0.00 in0.0 mm 0.00 in0.0 mm
09:35 AM 7.2°F-13.8°C 1.8°F-16.8°C 78% 1.0 mph S1.6 kmh S 3.0 mph4.8 kmh 30.22 in1023.4 mb 0.00 in0.0 mm 0.00 in0.0 mm 0.00 in0.0 mm
09:40 AM 7.3°F-13.7°C 1.9°F-16.7°C 78% 1.0 mph SE1.6 kmh SE 3.0 mph4.8 kmh 30.22 in1023.4 mb 0.00 in0.0 mm 0.00 in0.0 mm 0.00 in0.0 mm
09:45 AM 7.4°F-13.7°C 1.7°F-16.8°C 77% 1.0 mph SE1.6 kmh SE 3.0 mph4.8 kmh 30.22 in1023.4 mb 0.00 in0.0 mm 0.00 in0.0 mm 0.00 in0.0 mm
09:50 AM 7.6°F-13.6°C 1.9°F-16.7°C 77% 1.0 mph SE1.6 kmh SE 3.0 mph4.8 kmh 30.22 in1023.4 mb 0.00 in0.0 mm 0.00 in0.0 mm 0.00 in0.0 mm
09:55 AM 7.8°F-13.4°C 2.1°F-16.6°C 77% 1.0 mph SE1.6 kmh SE 4.0 mph6.4 kmh 30.22 in1023.4 mb 0.00 in0.0 mm 0.00 in0.0 mm 0.00 in0.0 mm
10:00 AM 7.9°F-13.4°C 2.2°F-16.6°C 77% 1.0 mph SE1.6 kmh SE 5.0 mph8.0 kmh 30.22 in1023.4 mb 0.00 in0.0 mm 0.00 in0.0 mm 0.00 in0.0 mm
10:05 AM 8.4°F-13.1°C 2.4°F-16.4°C 76% 1.0 mph SE1.6 kmh SE 5.0 mph8.0 kmh 30.22 in1023.4 mb 0.00 in0.0 mm 0.00 in0.0 mm 0.00 in0.0 mm
10:10 AM 8.8°F-12.9°C 2.8°F-16.2°C 76% 2.0 mph SSE3.2 kmh SSE 4.0 mph6.4 kmh 30.22 in1023.4 mb 0.00 in0.0 mm 0.00 in0.0 mm 0.00 in0.0 mm
10:15 AM 9.5°F-12.5°C 3.5°F-15.8°C 76% 1.0 mph SE1.6 kmh SE 4.0 mph6.4 kmh 30.22 in1023.4 mb 0.00 in0.0 mm 0.00 in0.0 mm 0.00 in0.0 mm
10:20 AM 9.6°F-12.4°C 3.0°F-16.1°C 74% 1.0 mph SE1.6 kmh SE 3.0 mph4.8 kmh 30.22 in1023.4 mb 0.00 in0.0 mm 0.00 in0.0 mm 0.00 in0.0 mm
10:25 AM 9.6°F-12.4°C 3.0°F-16.1°C 74% 2.0 mph SE3.2 kmh SE 5.0 mph8.0 kmh 30.22 in1023.4 mb 0.00 in0.0 mm 0.00 in0.0 mm 0.00 in0.0 mm
10:30 AM 9.8°F-12.3°C 3.5°F-15.8°C 75% 2.0 mph SE3.2 kmh SE 5.0 mph8.0 kmh 30.21 in1023.0 mb 0.00 in0.0 mm 0.00 in0.0 mm 0.00 in0.0 mm
10:35 AM 10.1°F-12.2°C 3.8°F-15.7°C 75% 2.0 mph SE3.2 kmh SE 5.0 mph8.0 kmh 30.21 in1023.0 mb 0.00 in0.0 mm 0.00 in0.0 mm 0.00 in0.0 mm
10:40 AM 10.5°F-11.9°C 4.1°F-15.5°C 75% 2.0 mph ESE3.2 kmh ESE 5.0 mph8.0 kmh 30.21 in1023.0 mb 0.00 in0.0 mm 0.00 in0.0 mm 0.00 in0.0 mm
10:45 AM 10.8°F-11.8°C 4.1°F-15.5°C 74% 2.0 mph SE3.2 kmh SE 5.0 mph8.0 kmh 30.21 in1023.0 mb 0.00 in0.0 mm 0.00 in0.0 mm 0.00 in0.0 mm
10:50 AM 11.3°F-11.5°C 4.6°F-15.2°C 74% 2.0 mph SE3.2 kmh SE 5.0 mph8.0 kmh 30.21 in1023.0 mb 0.00 in0.0 mm 0.00 in0.0 mm 0.00 in0.0 mm
10:55 AM 11.7°F-11.3°C 5.0°F-15.0°C 74% 1.0 mph SE1.6 kmh SE 4.0 mph6.4 kmh 30.21 in1023.0 mb 0.00 in0.0 mm 0.00 in0.0 mm 0.00 in0.0 mm
11:00 AM 12.2°F-11.0°C 5.5°F-14.7°C 74% 1.0 mph SE1.6 kmh SE 4.0 mph6.4 kmh 30.21 in1023.0 mb 0.00 in0.0 mm 0.00 in0.0 mm 0.00 in0.0 mm
11:05 AM 12.5°F-10.8°C 5.5°F-14.7°C 73% 2.0 mph SE3.2 kmh SE 4.0 mph6.4 kmh 30.21 in1023.0 mb 0.00 in0.0 mm 0.00 in0.0 mm 0.00 in0.0 mm
11:10 AM 12.9°F-10.6°C 5.9°F-14.5°C 73% 1.0 mph SSE1.6 kmh SSE 4.0 mph6.4 kmh 30.21 in1023.0 mb 0.00 in0.0 mm 0.00 in0.0 mm 0.00 in0.0 mm
11:15 AM 13.6°F-10.2°C 6.2°F-14.3°C 72% 1.0 mph SSE1.6 kmh SSE 4.0 mph6.4 kmh 30.21 in1023.0 mb 0.00 in0.0 mm 0.00 in0.0 mm 0.00 in0.0 mm
11:20 AM 13.8°F-10.1°C 6.4°F-14.2°C 72% 1.0 mph SE1.6 kmh SE 4.0 mph6.4 kmh 30.21 in1023.0 mb 0.00 in0.0 mm 0.00 in0.0 mm 0.00 in0.0 mm
11:25 AM 14.3°F-9.8°C 6.6°F-14.1°C 71% 2.0 mph S3.2 kmh S 4.0 mph6.4 kmh 30.21 in1023.0 mb 0.00 in0.0 mm 0.00 in0.0 mm 0.00 in0.0 mm
11:30 AM 14.3°F-9.8°C 6.6°F-14.1°C 71% 2.0 mph S3.2 kmh S 5.0 mph8.0 kmh 30.21 in1023.0 mb 0.00 in0.0 mm 0.00 in0.0 mm 0.00 in0.0 mm
11:35 AM 14.4°F-9.8°C 7.0°F-13.9°C 72% 2.0 mph SE3.2 kmh SE 5.0 mph8.0 kmh 30.21 in1023.0 mb 0.00 in0.0 mm 0.00 in0.0 mm 0.00 in0.0 mm
11:40 AM 15.1°F-9.4°C 7.7°F-13.5°C 72% 1.0 mph SE1.6 kmh SE 4.0 mph6.4 kmh 30.21 in1023.0 mb 0.00 in0.0 mm 0.00 in0.0 mm 0.00 in0.0 mm
11:45 AM 15.6°F-9.1°C 8.2°F-13.2°C 72% 1.0 mph SE1.6 kmh SE 5.0 mph8.0 kmh 30.21 in1023.0 mb 0.00 in0.0 mm 0.00 in0.0 mm 0.00 in0.0 mm
11:50 AM 15.9°F-8.9°C 8.2°F-13.2°C 71% 2.0 mph SSE3.2 kmh SSE 5.0 mph8.0 kmh 30.21 in1023.0 mb 0.00 in0.0 mm 0.00 in0.0 mm 0.00 in0.0 mm
11:55 AM 16.5°F-8.6°C 8.7°F-12.9°C 71% 1.0 mph SSE1.6 kmh SSE 4.0 mph6.4 kmh 30.21 in1023.0 mb 0.00 in0.0 mm 0.00 in0.0 mm 0.00 in0.0 mm
12:00 PM 17.3°F-8.2°C 9.5°F-12.5°C 71% 1.0 mph SSE1.6 kmh SSE 6.0 mph9.7 kmh 30.21 in1023.0 mb 0.00 in0.0 mm 0.00 in0.0 mm 0.00 in0.0 mm
12:05 PM 17.4°F-8.1°C 9.3°F-12.6°C 70% 3.0 mph SSE4.8 kmh SSE 6.0 mph9.7 kmh 30.20 in1022.7 mb 0.00 in0.0 mm 0.00 in0.0 mm 0.00 in0.0 mm
12:10 PM 17.2°F-8.2°C 9.1°F-12.7°C 70% 2.0 mph SSE3.2 kmh SSE 6.0 mph9.7 kmh 30.20 in1022.7 mb 0.00 in0.0 mm 0.00 in0.0 mm 0.00 in0.0 mm
12:15 PM 17.7°F-7.9°C 9.6°F-12.4°C 70% 2.0 mph SE3.2 kmh SE 6.0 mph9.7 kmh 30.20 in1022.7 mb 0.00 in0.0 mm 0.00 in0.0 mm 0.00 in0.0 mm
12:20 PM 17.7°F-7.9°C 9.2°F-12.7°C 69% 3.0 mph SE4.8 kmh SE 5.0 mph8.0 kmh 30.20 in1022.7 mb 0.00 in0.0 mm 0.00 in0.0 mm 0.00 in0.0 mm
12:25 PM 18.0°F-7.8°C 9.9°F-12.3°C 70% 2.0 mph SE3.2 kmh SE 5.0 mph8.0 kmh 30.19 in1022.4 mb 0.00 in0.0 mm 0.00 in0.0 mm 0.00 in0.0 mm
12:30 PM 18.4°F-7.6°C 9.9°F-12.3°C 69% 2.0 mph SE3.2 kmh SE 4.0 mph6.4 kmh 30.19 in1022.4 mb 0.00 in0.0 mm 0.00 in0.0 mm 0.00 in0.0 mm
12:35 PM 18.8°F-7.3°C 10.3°F-12.1°C 69% 2.0 mph SE3.2 kmh SE 5.0 mph8.0 kmh 30.19 in1022.4 mb 0.00 in0.0 mm 0.00 in0.0 mm 0.00 in0.0 mm
12:40 PM 18.7°F-7.4°C 10.5°F-11.9°C 70% 2.0 mph SE3.2 kmh SE 6.0 mph9.7 kmh 30.18 in1022.0 mb 0.00 in0.0 mm 0.00 in0.0 mm 0.00 in0.0 mm
12:45 PM 19.0°F-7.2°C 10.5°F-11.9°C 69% 2.0 mph SE3.2 kmh SE 6.0 mph9.7 kmh 30.18 in1022.0 mb 0.00 in0.0 mm 0.00 in0.0 mm 0.00 in0.0 mm
12:50 PM 19.1°F-7.2°C 10.6°F-11.9°C 69% 2.0 mph SE3.2 kmh SE 6.0 mph9.7 kmh 30.18 in1022.0 mb 0.00 in0.0 mm 0.00 in0.0 mm 0.00 in0.0 mm
12:55 PM 19.0°F-7.2°C 10.5°F-11.9°C 69% 2.0 mph SE3.2 kmh SE 6.0 mph9.7 kmh 30.19 in1022.4 mb 0.00 in0.0 mm 0.00 in0.0 mm 0.00 in0.0 mm
01:00 PM 19.1°F-7.2°C 10.6°F-11.9°C 69% 3.0 mph SE4.8 kmh SE 6.0 mph9.7 kmh 30.18 in1022.0 mb 0.00 in0.0 mm 0.00 in0.0 mm 0.00 in0.0 mm
01:05 PM 19.3°F-7.1°C 10.8°F-11.8°C 69% 2.0 mph ESE3.2 kmh ESE 6.0 mph9.7 kmh 30.18 in1022.0 mb 0.00 in0.0 mm 0.00 in0.0 mm 0.00 in0.0 mm
01:10 PM 19.6°F-6.9°C 11.1°F-11.6°C 69% 2.0 mph SE3.2 kmh SE 5.0 mph8.0 kmh 30.18 in1022.0 mb 0.00 in0.0 mm 0.00 in0.0 mm 0.00 in0.0 mm
01:15 PM 20.0°F-6.7°C 11.5°F-11.4°C 69% 2.0 mph SE3.2 kmh SE 5.0 mph8.0 kmh 30.18 in1022.0 mb 0.00 in0.0 mm 0.00 in0.0 mm 0.00 in0.0 mm
01:20 PM 20.5°F-6.4°C 11.9°F-11.2°C 69% 2.0 mph SE3.2 kmh SE 5.0 mph8.0 kmh 30.18 in1022.0 mb 0.00 in0.0 mm 0.00 in0.0 mm 0.00 in0.0 mm
01:25 PM 20.7°F-6.3°C 11.8°F-11.2°C 68% 3.0 mph SE4.8 kmh SE 8.0 mph12.9 kmh 30.17 in1021.7 mb 0.00 in0.0 mm 0.00 in0.0 mm 0.00 in0.0 mm
01:30 PM 20.9°F-6.2°C 12.0°F-11.1°C 68% 2.0 mph SE3.2 kmh SE 8.0 mph12.9 kmh 30.17 in1021.7 mb 0.00 in0.0 mm 0.00 in0.0 mm 0.00 in0.0 mm
01:35 PM 21.1°F-6.1°C 11.8°F-11.2°C 67% 2.0 mph SE3.2 kmh SE 8.0 mph12.9 kmh 30.16 in1021.3 mb 0.00 in0.0 mm 0.00 in0.0 mm 0.00 in0.0 mm
01:40 PM 21.0°F-6.1°C 12.1°F-11.1°C 68% 3.0 mph SE4.8 kmh SE 7.0 mph11.3 kmh 30.16 in1021.3 mb 0.00 in0.0 mm 0.00 in0.0 mm 0.00 in0.0 mm
01:45 PM 21.3°F-5.9°C 12.7°F-10.7°C 69% 2.0 mph SE3.2 kmh SE 7.0 mph11.3 kmh 30.16 in1021.3 mb 0.00 in0.0 mm 0.00 in0.0 mm 0.00 in0.0 mm
01:50 PM 21.6°F-5.8°C 12.7°F-10.7°C 68% 2.0 mph SE3.2 kmh SE 6.0 mph9.7 kmh 30.16 in1021.3 mb 0.00 in0.0 mm 0.00 in0.0 mm 0.00 in0.0 mm
01:55 PM 21.7°F-5.7°C 12.8°F-10.7°C 68% 2.0 mph SE3.2 kmh SE 6.0 mph9.7 kmh 30.15 in1021.0 mb 0.00 in0.0 mm 0.00 in0.0 mm 0.00 in0.0 mm
02:00 PM 22.0°F-5.6°C 13.0°F-10.6°C 68% 1.0 mph SE1.6 kmh SE 6.0 mph9.7 kmh 30.15 in1021.0 mb 0.00 in0.0 mm 0.00 in0.0 mm 0.00 in0.0 mm
02:05 PM 21.9°F-5.6°C 12.6°F-10.8°C 67% 3.0 mph SE4.8 kmh SE 7.0 mph11.3 kmh 30.15 in1021.0 mb 0.00 in0.0 mm 0.00 in0.0 mm 0.00 in0.0 mm
02:10 PM 21.9°F-5.6°C 13.0°F-10.6°C 68% 2.0 mph SE3.2 kmh SE 7.0 mph11.3 kmh 30.14 in1020.7 mb 0.00 in0.0 mm 0.00 in0.0 mm 0.00 in0.0 mm
02:15 PM 22.4°F-5.3°C 13.4°F-10.3°C 68% 2.0 mph SE3.2 kmh SE 5.0 mph8.0 kmh 30.14 in1020.7 mb 0.00 in0.0 mm 0.00 in0.0 mm 0.00 in0.0 mm
02:20 PM 22.6°F-5.2°C 13.3°F-10.4°C 67% 2.0 mph SE3.2 kmh SE 7.0 mph11.3 kmh 30.14 in1020.7 mb 0.00 in0.0 mm 0.00 in0.0 mm 0.00 in0.0 mm
02:25 PM 22.8°F-5.1°C 13.5°F-10.3°C 67% 2.0 mph SE3.2 kmh SE 7.0 mph11.3 kmh 30.14 in1020.7 mb 0.00 in0.0 mm 0.00 in0.0 mm 0.00 in0.0 mm
02:30 PM 23.1°F-4.9°C 13.8°F-10.1°C 67% 2.0 mph SE3.2 kmh SE 5.0 mph8.0 kmh 30.14 in1020.7 mb 0.00 in0.0 mm 0.00 in0.0 mm 0.00 in0.0 mm
02:35 PM 23.5°F-4.7°C 14.1°F-9.9°C 67% 2.0 mph SE3.2 kmh SE 6.0 mph9.7 kmh 30.14 in1020.7 mb 0.00 in0.0 mm 0.00 in0.0 mm 0.00 in0.0 mm
02:40 PM 23.6°F-4.7°C 13.9°F-10.1°C 66% 3.0 mph SE4.8 kmh SE 8.0 mph12.9 kmh 30.13 in1020.3 mb 0.00 in0.0 mm 0.00 in0.0 mm 0.00 in0.0 mm
02:45 PM 23.8°F-4.6°C 14.1°F-9.9°C 66% 2.0 mph SE3.2 kmh SE 8.0 mph12.9 kmh 30.13 in1020.3 mb 0.00 in0.0 mm 0.00 in0.0 mm 0.00 in0.0 mm
02:50 PM 24.0°F-4.4°C 14.3°F-9.8°C 66% 2.0 mph SE3.2 kmh SE 6.0 mph9.7 kmh 30.12 in1020.0 mb 0.00 in0.0 mm 0.00 in0.0 mm 0.00 in0.0 mm
02:55 PM 23.9°F-4.5°C 14.5°F-9.7°C 67% 3.0 mph SSE4.8 kmh SSE 8.0 mph12.9 kmh 30.12 in1020.0 mb 0.00 in0.0 mm 0.00 in0.0 mm 0.00 in0.0 mm
03:00 PM 24.2°F-4.3°C 14.5°F-9.7°C 66% 2.0 mph SSE3.2 kmh SSE 8.0 mph12.9 kmh 30.12 in1020.0 mb 0.00 in0.0 mm 0.00 in0.0 mm 0.00 in0.0 mm
03:05 PM 24.4°F-4.2°C 14.7°F-9.6°C 66% 3.0 mph SSE4.8 kmh SSE 9.0 mph14.5 kmh 30.12 in1020.0 mb 0.00 in0.0 mm 0.00 in0.0 mm 0.00 in0.0 mm
03:10 PM 24.6°F-4.1°C 15.2°F-9.3°C 67% 3.0 mph SSE4.8 kmh SSE 9.0 mph14.5 kmh 30.12 in1020.0 mb 0.00 in0.0 mm 0.00 in0.0 mm 0.00 in0.0 mm
03:15 PM 24.7°F-4.1°C 14.9°F-9.5°C 66% 3.0 mph SSE4.8 kmh SSE 7.0 mph11.3 kmh 30.12 in1020.0 mb 0.00 in0.0 mm 0.00 in0.0 mm 0.00 in0.0 mm
03:20 PM 24.7°F-4.1°C 15.3°F-9.3°C 67% 2.0 mph SSE3.2 kmh SSE 7.0 mph11.3 kmh 30.12 in1020.0 mb 0.00 in0.0 mm 0.00 in0.0 mm 0.00 in0.0 mm
03:25 PM 24.8°F-4.0°C 15.4°F-9.2°C 67% 3.0 mph SSE4.8 kmh SSE 8.0 mph12.9 kmh 30.11 in1019.6 mb 0.00 in0.0 mm 0.00 in0.0 mm 0.00 in0.0 mm
03:30 PM 24.8°F-4.0°C 15.4°F-9.2°C 67% 3.0 mph SSE4.8 kmh SSE 8.0 mph12.9 kmh 30.11 in1019.6 mb 0.00 in0.0 mm 0.00 in0.0 mm 0.00 in0.0 mm
03:35 PM 24.9°F-3.9°C 15.5°F-9.2°C 67% 3.0 mph SSE4.8 kmh SSE 9.0 mph14.5 kmh 30.11 in1019.6 mb 0.00 in0.0 mm 0.00 in0.0 mm 0.00 in0.0 mm
03:40 PM 25.0°F-3.9°C 15.6°F-9.1°C 67% 3.0 mph SE4.8 kmh SE 9.0 mph14.5 kmh 30.11 in1019.6 mb 0.00 in0.0 mm 0.00 in0.0 mm 0.00 in0.0 mm
03:45 PM 25.4°F-3.7°C 16.0°F-8.9°C 67% 3.0 mph SE4.8 kmh SE 9.0 mph14.5 kmh 30.10 in1019.3 mb 0.00 in0.0 mm 0.00 in0.0 mm 0.00 in0.0 mm
03:50 PM 25.4°F-3.7°C 16.0°F-8.9°C 67% 4.0 mph SE6.4 kmh SE 9.0 mph14.5 kmh 30.11 in1019.6 mb 0.00 in0.0 mm 0.00 in0.0 mm 0.00 in0.0 mm
03:55 PM 25.6°F-3.6°C 16.2°F-8.8°C 67% 3.0 mph SSE4.8 kmh SSE 9.0 mph14.5 kmh 30.10 in1019.3 mb 0.00 in0.0 mm 0.00 in0.0 mm 0.00 in0.0 mm
04:10 PM 26.2°F-3.2°C 17.1°F-8.3°C 68% 2.0 mph S3.2 kmh S 2.0 mph3.2 kmh 30.14 in1020.7 mb 0.00 in0.0 mm 0.00 in0.0 mm 0.00 in0.0 mm
04:15 PM 26.4°F-3.1°C 17.3°F-8.2°C 68% 2.0 mph SE3.2 kmh SE 7.0 mph11.3 kmh 30.14 in1020.7 mb 0.00 in0.0 mm 0.00 in0.0 mm 0.00 in0.0 mm
04:20 PM 26.7°F-2.9°C 17.2°F-8.2°C 67% 3.0 mph SSE4.8 kmh SSE 7.0 mph11.3 kmh 30.14 in1020.7 mb 0.00 in0.0 mm 0.00 in0.0 mm 0.00 in0.0 mm
04:25 PM 26.9°F-2.8°C 17.4°F-8.1°C 67% 2.0 mph SSE3.2 kmh SSE 6.0 mph9.7 kmh 30.14 in1020.7 mb 0.00 in0.0 mm 0.00 in0.0 mm 0.00 in0.0 mm
04:30 PM 26.8°F-2.9°C 17.6°F-8.0°C 68% 2.0 mph SSE3.2 kmh SSE 5.0 mph8.0 kmh 30.14 in1020.7 mb 0.00 in0.0 mm 0.00 in0.0 mm 0.00 in0.0 mm
04:35 PM 26.7°F-2.9°C 17.6°F-8.0°C 68% 2.0 mph SE3.2 kmh SE 6.0 mph9.7 kmh 30.13 in1020.3 mb 0.00 in0.0 mm 0.00 in0.0 mm 0.00 in0.0 mm
04:40 PM 26.7°F-2.9°C 17.6°F-8.0°C 68% 2.0 mph SE3.2 kmh SE 6.0 mph9.7 kmh 30.13 in1020.3 mb 0.00 in0.0 mm 0.00 in0.0 mm 0.00 in0.0 mm
04:45 PM 26.7°F-2.9°C 17.6°F-8.0°C 68% 2.0 mph SSE3.2 kmh SSE 6.0 mph9.7 kmh 30.13 in1020.3 mb 0.00 in0.0 mm 0.00 in0.0 mm 0.00 in0.0 mm
04:50 PM 26.6°F-3.0°C 17.8°F-7.9°C 69% 2.0 mph SSE3.2 kmh SSE 7.0 mph11.3 kmh 30.13 in1020.3 mb 0.00 in0.0 mm 0.00 in0.0 mm 0.00 in0.0 mm
04:55 PM 26.6°F-3.0°C 17.8°F-7.9°C 69% 2.0 mph SSE3.2 kmh SSE 7.0 mph11.3 kmh 30.14 in1020.7 mb 0.00 in0.0 mm 0.00 in0.0 mm 0.00 in0.0 mm
05:00 PM 26.6°F-3.0°C 17.8°F-7.9°C 69% 2.0 mph SSE3.2 kmh SSE 6.0 mph9.7 kmh 30.13 in1020.3 mb 0.00 in0.0 mm 0.00 in0.0 mm 0.00 in0.0 mm
05:05 PM 26.6°F-3.0°C 17.8°F-7.9°C 69% 2.0 mph SSE3.2 kmh SSE 4.0 mph6.4 kmh 30.13 in1020.3 mb 0.00 in0.0 mm 0.00 in0.0 mm 0.00 in0.0 mm
05:10 PM 26.5°F-3.1°C 18.0°F-7.8°C 70% 2.0 mph SSE3.2 kmh SSE 4.0 mph6.4 kmh 30.13 in1020.3 mb 0.00 in0.0 mm 0.00 in0.0 mm 0.00 in0.0 mm
05:15 PM 26.4°F-3.1°C 17.9°F-7.8°C 70% 2.0 mph S3.2 kmh S 4.0 mph6.4 kmh 30.13 in1020.3 mb 0.00 in0.0 mm 0.00 in0.0 mm 0.00 in0.0 mm
05:20 PM 26.3°F-3.2°C 17.8°F-7.9°C 70% 1.0 mph S1.6 kmh S 4.0 mph6.4 kmh 30.13 in1020.3 mb 0.00 in0.0 mm 0.00 in0.0 mm 0.00 in0.0 mm
05:25 PM 26.2°F-3.2°C 17.7°F-7.9°C 70% 1.0 mph S1.6 kmh S 4.0 mph6.4 kmh 30.14 in1020.7 mb 0.00 in0.0 mm 0.00 in0.0 mm 0.00 in0.0 mm
05:30 PM 26.2°F-3.2°C 18.1°F-7.7°C 71% 1.0 mph S1.6 kmh S 5.0 mph8.0 kmh 30.13 in1020.3 mb 0.00 in0.0 mm 0.00 in0.0 mm 0.00 in0.0 mm
05:35 PM 26.1°F-3.3°C 18.0°F-7.8°C 71% 2.0 mph S3.2 kmh S 5.0 mph8.0 kmh 30.13 in1020.3 mb 0.00 in0.0 mm 0.00 in0.0 mm 0.00 in0.0 mm
05:40 PM 26.0°F-3.3°C 17.9°F-7.8°C 71% 1.0 mph S1.6 kmh S 5.0 mph8.0 kmh 30.13 in1020.3 mb 0.00 in0.0 mm 0.00 in0.0 mm 0.00 in0.0 mm
05:45 PM 25.9°F-3.4°C 18.1°F-7.7°C 72% 1.0 mph S1.6 kmh S 5.0 mph8.0 kmh 30.13 in1020.3 mb 0.00 in0.0 mm 0.00 in0.0 mm 0.00 in0.0 mm
05:50 PM 25.9°F-3.4°C 18.1°F-7.7°C 72% 1.0 mph SSE1.6 kmh SSE 5.0 mph8.0 kmh 30.13 in1020.3 mb 0.00 in0.0 mm 0.00 in0.0 mm 0.00 in0.0 mm
05:55 PM 25.8°F-3.4°C 18.0°F-7.8°C 72% 1.0 mph SSE1.6 kmh SSE 5.0 mph8.0 kmh 30.13 in1020.3 mb 0.00 in0.0 mm 0.00 in0.0 mm 0.00 in0.0 mm
06:00 PM 25.8°F-3.4°C 18.0°F-7.8°C 72% 1.0 mph SSE1.6 kmh SSE 4.0 mph6.4 kmh 30.13 in1020.3 mb 0.00 in0.0 mm 0.00 in0.0 mm 0.00 in0.0 mm
06:05 PM 25.8°F-3.4°C 18.3°F-7.6°C 73% 1.0 mph SSE1.6 kmh SSE 4.0 mph6.4 kmh 30.13 in1020.3 mb 0.00 in0.0 mm 0.00 in0.0 mm 0.00 in0.0 mm
06:10 PM 25.7°F-3.5°C 18.2°F-7.7°C 73% 1.0 mph SSE1.6 kmh SSE 4.0 mph6.4 kmh 30.13 in1020.3 mb 0.00 in0.0 mm 0.00 in0.0 mm 0.00 in0.0 mm
06:15 PM 25.7°F-3.5°C 18.2°F-7.7°C 73% 1.0 mph SSE1.6 kmh SSE 4.0 mph6.4 kmh 30.14 in1020.7 mb 0.00 in0.0 mm 0.00 in0.0 mm 0.00 in0.0 mm
06:20 PM 25.6°F-3.6°C 18.1°F-7.7°C 73% 1.0 mph SSE1.6 kmh SSE 4.0 mph6.4 kmh 30.14 in1020.7 mb 0.00 in0.0 mm 0.00 in0.0 mm 0.00 in0.0 mm
06:25 PM 25.6°F-3.6°C 18.5°F-7.5°C 74% 1.0 mph SSE1.6 kmh SSE 3.0 mph4.8 kmh 30.14 in1020.7 mb 0.00 in0.0 mm 0.00 in0.0 mm 0.00 in0.0 mm
06:30 PM 25.6°F-3.6°C 18.5°F-7.5°C 74% 1.0 mph SSE1.6 kmh SSE 4.0 mph6.4 kmh 30.14 in1020.7 mb 0.00 in0.0 mm 0.00 in0.0 mm 0.00 in0.0 mm
06:35 PM 25.5°F-3.6°C 18.4°F-7.6°C 74% 1.0 mph SSE1.6 kmh SSE 4.0 mph6.4 kmh 30.14 in1020.7 mb 0.00 in0.0 mm 0.00 in0.0 mm 0.00 in0.0 mm
06:40 PM 25.6°F-3.6°C 18.5°F-7.5°C 74% 1.0 mph SSE1.6 kmh SSE 4.0 mph6.4 kmh 30.13 in1020.3 mb 0.00 in0.0 mm 0.00 in0.0 mm 0.00 in0.0 mm
06:45 PM 25.6°F-3.6°C 18.5°F-7.5°C 74% 1.0 mph SSE1.6 kmh SSE 3.0 mph4.8 kmh 30.13 in1020.3 mb 0.00 in0.0 mm 0.00 in0.0 mm 0.00 in0.0 mm
06:50 PM 25.5°F-3.6°C 18.4°F-7.6°C 74% 1.0 mph SSE1.6 kmh SSE 3.0 mph4.8 kmh 30.13 in1020.3 mb 0.00 in0.0 mm 0.00 in0.0 mm 0.00 in0.0 mm
06:55 PM 25.5°F-3.6°C 18.4°F-7.6°C 74% 1.0 mph SSE1.6 kmh SSE 3.0 mph4.8 kmh 30.13 in1020.3 mb 0.00 in0.0 mm 0.00 in0.0 mm 0.00 in0.0 mm
07:00 PM 25.5°F-3.6°C 18.4°F-7.6°C 74% 2.0 mph S3.2 kmh S 6.0 mph9.7 kmh 30.13 in1020.3 mb 0.00 in0.0 mm 0.00 in0.0 mm 0.00 in0.0 mm
07:05 PM 25.5°F-3.6°C 18.4°F-7.6°C 74% 2.0 mph S3.2 kmh S 6.0 mph9.7 kmh 30.13 in1020.3 mb 0.00 in0.0 mm 0.00 in0.0 mm 0.00 in0.0 mm
07:10 PM 25.5°F-3.6°C 18.7°F-7.4°C 75% 1.0 mph SSE1.6 kmh SSE 5.0 mph8.0 kmh 30.13 in1020.3 mb 0.00 in0.0 mm 0.00 in0.0 mm 0.00 in0.0 mm
07:15 PM 25.5°F-3.6°C 18.7°F-7.4°C 75% 1.0 mph S1.6 kmh S 5.0 mph8.0 kmh 30.13 in1020.3 mb 0.00 in0.0 mm 0.00 in0.0 mm 0.00 in0.0 mm
07:20 PM 25.5°F-3.6°C 18.7°F-7.4°C 75% 2.0 mph S3.2 kmh S 4.0 mph6.4 kmh 30.12 in1020.0 mb 0.00 in0.0 mm 0.00 in0.0 mm 0.00 in0.0 mm
07:25 PM 25.5°F-3.6°C 18.7°F-7.4°C 75% 2.0 mph S3.2 kmh S 4.0 mph6.4 kmh 30.12 in1020.0 mb 0.00 in0.0 mm 0.00 in0.0 mm 0.00 in0.0 mm
07:30 PM 25.6°F-3.6°C 18.8°F-7.3°C 75% 2.0 mph S3.2 kmh S 7.0 mph11.3 kmh 30.12 in1020.0 mb 0.00 in0.0 mm 0.00 in0.0 mm 0.00 in0.0 mm
07:35 PM 25.5°F-3.6°C 18.7°F-7.4°C 75% 2.0 mph S3.2 kmh S 7.0 mph11.3 kmh 30.12 in1020.0 mb 0.00 in0.0 mm 0.00 in0.0 mm 0.00 in0.0 mm
07:40 PM 25.5°F-3.6°C 18.7°F-7.4°C 75% 2.0 mph S3.2 kmh S 6.0 mph9.7 kmh 30.12 in1020.0 mb 0.00 in0.0 mm 0.00 in0.0 mm 0.00 in0.0 mm
07:45 PM 25.5°F-3.6°C 19.0°F-7.2°C 76% 3.0 mph S4.8 kmh S 6.0 mph9.7 kmh 30.12 in1020.0 mb 0.00 in0.0 mm 0.00 in0.0 mm 0.00 in0.0 mm
07:50 PM 25.5°F-3.6°C 19.0°F-7.2°C 76% 3.0 mph S4.8 kmh S 5.0 mph8.0 kmh 30.12 in1020.0 mb 0.00 in0.0 mm 0.00 in0.0 mm 0.00 in0.0 mm
07:55 PM 25.4°F-3.7°C 18.9°F-7.3°C 76% 2.0 mph S3.2 kmh S 5.0 mph8.0 kmh 30.11 in1019.6 mb 0.00 in0.0 mm 0.00 in0.0 mm 0.00 in0.0 mm
08:00 PM 25.4°F-3.7°C 18.9°F-7.3°C 76% 2.0 mph S3.2 kmh S 6.0 mph9.7 kmh 30.11 in1019.6 mb 0.00 in0.0 mm 0.00 in0.0 mm 0.00 in0.0 mm
08:05 PM 25.4°F-3.7°C 18.9°F-7.3°C 76% 3.0 mph S4.8 kmh S 6.0 mph9.7 kmh 30.11 in1019.6 mb 0.00 in0.0 mm 0.00 in0.0 mm 0.00 in0.0 mm
08:10 PM 25.3°F-3.7°C 18.8°F-7.3°C 76% 2.0 mph S3.2 kmh S 6.0 mph9.7 kmh 30.11 in1019.6 mb 0.00 in0.0 mm 0.00 in0.0 mm 0.00 in0.0 mm
08:15 PM 25.3°F-3.7°C 19.1°F-7.2°C 77% 2.0 mph S3.2 kmh S 4.0 mph6.4 kmh 30.11 in1019.6 mb 0.00 in0.0 mm 0.00 in0.0 mm 0.00 in0.0 mm
08:20 PM 25.2°F-3.8°C 19.0°F-7.2°C 77% 2.0 mph S3.2 kmh S 6.0 mph9.7 kmh 30.11 in1019.6 mb 0.00 in0.0 mm 0.00 in0.0 mm 0.00 in0.0 mm
08:25 PM 25.2°F-3.8°C 19.0°F-7.2°C 77% 3.0 mph S4.8 kmh S 6.0 mph9.7 kmh 30.11 in1019.6 mb 0.00 in0.0 mm 0.00 in0.0 mm 0.00 in0.0 mm
08:30 PM 25.1°F-3.8°C 18.9°F-7.3°C 77% 2.0 mph S3.2 kmh S 6.0 mph9.7 kmh 30.11 in1019.6 mb 0.00 in0.0 mm 0.00 in0.0 mm 0.00 in0.0 mm
08:35 PM 25.1°F-3.8°C 19.2°F-7.1°C 78% 2.0 mph S3.2 kmh S 4.0 mph6.4 kmh 30.11 in1019.6 mb 0.00 in0.0 mm 0.00 in0.0 mm 0.00 in0.0 mm
08:40 PM 25.0°F-3.9°C 19.1°F-7.2°C 78% 2.0 mph S3.2 kmh S 5.0 mph8.0 kmh 30.11 in1019.6 mb 0.00 in0.0 mm 0.00 in0.0 mm 0.00 in0.0 mm
08:45 PM 25.0°F-3.9°C 19.1°F-7.2°C 78% 2.0 mph S3.2 kmh S 7.0 mph11.3 kmh 30.11 in1019.6 mb 0.00 in0.0 mm 0.00 in0.0 mm 0.00 in0.0 mm
08:50 PM 25.0°F-3.9°C 19.1°F-7.2°C 78% 2.0 mph S3.2 kmh S 7.0 mph11.3 kmh 30.11 in1019.6 mb 0.00 in0.0 mm 0.00 in0.0 mm 0.00 in0.0 mm
08:55 PM 25.0°F-3.9°C 19.4°F-7.0°C 79% 2.0 mph S3.2 kmh S 7.0 mph11.3 kmh 30.10 in1019.3 mb 0.00 in0.0 mm 0.00 in0.0 mm 0.00 in0.0 mm
09:00 PM 25.0°F-3.9°C 19.4°F-7.0°C 79% 2.0 mph S3.2 kmh S 6.0 mph9.7 kmh 30.11 in1019.6 mb 0.00 in0.0 mm 0.00 in0.0 mm 0.00 in0.0 mm
09:05 PM 25.0°F-3.9°C 19.4°F-7.0°C 79% 1.0 mph SSE1.6 kmh SSE 3.0 mph4.8 kmh 30.11 in1019.6 mb 0.00 in0.0 mm 0.00 in0.0 mm 0.00 in0.0 mm
09:10 PM 25.0°F-3.9°C 19.4°F-7.0°C 79% 1.0 mph S1.6 kmh S 5.0 mph8.0 kmh 30.11 in1019.6 mb 0.00 in0.0 mm 0.00 in0.0 mm 0.00 in0.0 mm
09:15 PM 25.0°F-3.9°C 19.4°F-7.0°C 79% 1.0 mph S1.6 kmh S 5.0 mph8.0 kmh 30.11 in1019.6 mb 0.00 in0.0 mm 0.00 in0.0 mm 0.00 in0.0 mm
09:20 PM 25.0°F-3.9°C 19.7°F-6.8°C 80% 2.0 mph S3.2 kmh S 6.0 mph9.7 kmh 30.10 in1019.3 mb 0.00 in0.0 mm 0.00 in0.0 mm 0.00 in0.0 mm
09:25 PM 25.0°F-3.9°C 19.7°F-6.8°C 80% 2.0 mph S3.2 kmh S 6.0 mph9.7 kmh 30.10 in1019.3 mb 0.00 in0.0 mm 0.00 in0.0 mm 0.00 in0.0 mm
09:30 PM 25.0°F-3.9°C 19.7°F-6.8°C 80% 1.0 mph S1.6 kmh S 6.0 mph9.7 kmh 30.10 in1019.3 mb 0.00 in0.0 mm 0.00 in0.0 mm 0.00 in0.0 mm
09:35 PM 25.1°F-3.8°C 19.8°F-6.8°C 80% 2.0 mph S3.2 kmh S 5.0 mph8.0 kmh 30.10 in1019.3 mb 0.00 in0.0 mm 0.00 in0.0 mm 0.00 in0.0 mm
09:40 PM 25.1°F-3.8°C 20.1°F-6.6°C 81% 2.0 mph S3.2 kmh S 5.0 mph8.0 kmh 30.10 in1019.3 mb 0.00 in0.0 mm 0.00 in0.0 mm 0.00 in0.0 mm
09:45 PM 25.1°F-3.8°C 20.1°F-6.6°C 81% 2.0 mph S3.2 kmh S 4.0 mph6.4 kmh 30.10 in1019.3 mb 0.00 in0.0 mm 0.00 in0.0 mm 0.00 in0.0 mm
09:50 PM 25.1°F-3.8°C 20.1°F-6.6°C 81% 2.0 mph S3.2 kmh S 4.0 mph6.4 kmh 30.10 in1019.3 mb 0.00 in0.0 mm 0.00 in0.0 mm 0.00 in0.0 mm
09:55 PM 25.2°F-3.8°C 20.2°F-6.6°C 81% 1.0 mph S1.6 kmh S 4.0 mph6.4 kmh 30.10 in1019.3 mb 0.00 in0.0 mm 0.00 in0.0 mm 0.00 in0.0 mm
10:00 PM 25.3°F-3.7°C 20.6°F-6.3°C 82% 2.0 mph S3.2 kmh S 5.0 mph8.0 kmh 30.09 in1019.0 mb 0.00 in0.0 mm 0.00 in0.0 mm 0.00 in0.0 mm
10:05 PM 25.3°F-3.7°C 20.3°F-6.5°C 81% 2.0 mph S3.2 kmh S 5.0 mph8.0 kmh 30.09 in1019.0 mb 0.00 in0.0 mm 0.00 in0.0 mm 0.00 in0.0 mm
10:10 PM 25.3°F-3.7°C 20.6°F-6.3°C 82% 2.0 mph S3.2 kmh S 5.0 mph8.0 kmh 30.09 in1019.0 mb 0.00 in0.0 mm 0.00 in0.0 mm 0.00 in0.0 mm
10:15 PM 25.4°F-3.7°C 20.7°F-6.3°C 82% 2.0 mph S3.2 kmh S 6.0 mph9.7 kmh 30.09 in1019.0 mb 0.00 in0.0 mm 0.00 in0.0 mm 0.00 in0.0 mm
10:20 PM 25.4°F-3.7°C 20.7°F-6.3°C 82% 2.0 mph S3.2 kmh S 6.0 mph9.7 kmh 30.09 in1019.0 mb 0.00 in0.0 mm 0.00 in0.0 mm 0.00 in0.0 mm
10:25 PM 25.6°F-3.6°C 20.9°F-6.2°C 82% 3.0 mph S4.8 kmh S 6.0 mph9.7 kmh 30.09 in1019.0 mb 0.00 in0.0 mm 0.00 in0.0 mm 0.00 in0.0 mm
10:30 PM 25.7°F-3.5°C 21.0°F-6.1°C 82% 3.0 mph S4.8 kmh S 5.0 mph8.0 kmh 30.09 in1019.0 mb 0.00 in0.0 mm 0.00 in0.0 mm 0.00 in0.0 mm
10:35 PM 25.9°F-3.4°C 21.4°F-5.9°C 83% 2.0 mph S3.2 kmh S 7.0 mph11.3 kmh 30.09 in1019.0 mb 0.00 in0.0 mm 0.00 in0.0 mm 0.00 in0.0 mm
10:40 PM 26.0°F-3.3°C 21.5°F-5.8°C 83% 2.0 mph S3.2 kmh S 7.0 mph11.3 kmh 30.09 in1019.0 mb 0.00 in0.0 mm 0.00 in0.0 mm 0.00 in0.0 mm
10:45 PM 26.1°F-3.3°C 21.6°F-5.8°C 83% 2.0 mph S3.2 kmh S 5.0 mph8.0 kmh 30.09 in1019.0 mb 0.00 in0.0 mm 0.00 in0.0 mm 0.00 in0.0 mm
10:50 PM 26.2°F-3.2°C 21.7°F-5.7°C 83% 2.0 mph S3.2 kmh S 5.0 mph8.0 kmh 30.09 in1019.0 mb 0.00 in0.0 mm 0.00 in0.0 mm 0.00 in0.0 mm
10:55 PM 26.4°F-3.1°C 21.9°F-5.6°C 83% 2.0 mph S3.2 kmh S 6.0 mph9.7 kmh 30.09 in1019.0 mb 0.00 in0.0 mm 0.00 in0.0 mm 0.00 in0.0 mm
11:00 PM 26.5°F-3.1°C 22.0°F-5.6°C 83% 2.0 mph S3.2 kmh S 6.0 mph9.7 kmh 30.09 in1019.0 mb 0.00 in0.0 mm 0.00 in0.0 mm 0.00 in0.0 mm
11:05 PM 26.4°F-3.1°C 21.9°F-5.6°C 83% 1.0 mph S1.6 kmh S 6.0 mph9.7 kmh 30.09 in1019.0 mb 0.00 in0.0 mm 0.00 in0.0 mm 0.00 in0.0 mm
11:10 PM 26.4°F-3.1°C 21.9°F-5.6°C 83% 1.0 mph S1.6 kmh S 4.0 mph6.4 kmh 30.10 in1019.3 mb 0.00 in0.0 mm 0.00 in0.0 mm 0.00 in0.0 mm
11:15 PM 26.5°F-3.1°C 22.3°F-5.4°C 84% 1.0 mph S1.6 kmh S 5.0 mph8.0 kmh 30.10 in1019.3 mb 0.00 in0.0 mm 0.00 in0.0 mm 0.00 in0.0 mm
11:20 PM 26.6°F-3.0°C 22.4°F-5.3°C 84% 2.0 mph S3.2 kmh S 5.0 mph8.0 kmh 30.09 in1019.0 mb 0.00 in0.0 mm 0.00 in0.0 mm 0.00 in0.0 mm
11:25 PM 26.5°F-3.1°C 22.3°F-5.4°C 84% 2.0 mph S3.2 kmh S 5.0 mph8.0 kmh 30.09 in1019.0 mb 0.00 in0.0 mm 0.00 in0.0 mm 0.00 in0.0 mm
11:30 PM 26.5°F-3.1°C 22.3°F-5.4°C 84% 2.0 mph SSW3.2 kmh SSW 5.0 mph8.0 kmh 30.09 in1019.0 mb 0.00 in0.0 mm 0.00 in0.0 mm 0.00 in0.0 mm
11:35 PM 26.6°F-3.0°C 22.7°F-5.2°C 85% 2.0 mph S3.2 kmh S 6.0 mph9.7 kmh 30.09 in1019.0 mb 0.00 in0.0 mm 0.00 in0.0 mm 0.00 in0.0 mm
11:40 PM 26.7°F-2.9°C 22.8°F-5.1°C 85% 2.0 mph S3.2 kmh S 6.0 mph9.7 kmh 30.09 in1019.0 mb 0.00 in0.0 mm 0.00 in0.0 mm 0.00 in0.0 mm
11:45 PM 27.0°F-2.8°C 23.4°F-4.8°C 86% 3.0 mph S4.8 kmh S 8.0 mph12.9 kmh 30.08 in1018.6 mb 0.00 in0.0 mm 0.00 in0.0 mm 0.00 in0.0 mm
11:50 PM 27.3°F-2.6°C 23.7°F-4.6°C 86% 3.0 mph S4.8 kmh S 8.0 mph12.9 kmh 30.08 in1018.6 mb 0.00 in0.0 mm 0.00 in0.0 mm 0.00 in0.0 mm
11:55 PM 27.6°F-2.4°C 24.0°F-4.4°C 86% 3.0 mph S4.8 kmh S 7.0 mph11.3 kmh 30.08 in1018.6 mb 0.00 in0.0 mm 0.00 in0.0 mm 0.00 in0.0 mm